createdAt,value
2018-09-28T00:00:34.841Z,73.25
2018-09-28T00:03:03.424Z,73.78
2018-09-28T00:05:31.826Z,73.07
2018-09-28T00:08:00.238Z,72.83
2018-09-28T00:10:28.696Z,73.03
2018-09-28T00:12:57.374Z,73.87
2018-09-28T00:15:25.879Z,74.28
2018-09-28T00:17:54.195Z,75.02
2018-09-28T00:20:22.591Z,74.88
2018-09-28T00:22:51.466Z,74.64
2018-09-28T00:25:20.370Z,74.08
2018-09-28T00:27:49.972Z,74.89
2018-09-28T00:30:18.272Z,75.27
2018-09-28T00:32:46.791Z,74.48
2018-09-28T00:35:15.204Z,75.14
2018-09-28T00:37:43.523Z,75.35
2018-09-28T00:40:11.798Z,75.09
2018-09-28T00:42:40.113Z,75.33
2018-09-28T00:45:08.428Z,74.74
2018-09-28T00:47:37.020Z,75.63
2018-09-28T00:50:05.486Z,74.45
2018-09-28T00:52:34.057Z,75.57
2018-09-28T00:55:03.640Z,75.31
2018-09-28T00:57:32.022Z,75.43
2018-09-28T01:00:00.668Z,75.24
2018-09-28T01:02:29.013Z,75.80
2018-09-28T01:04:57.656Z,76.47
2018-09-28T01:07:26.243Z,76.22
2018-09-28T01:09:55.481Z,76.66
2018-09-28T01:12:23.991Z,76.85
2018-09-28T01:14:52.410Z,76.41
2018-09-28T01:17:20.679Z,76.30
2018-09-28T01:19:49.668Z,77.15
2018-09-28T01:22:18.513Z,76.86
2018-09-28T01:24:46.886Z,77.37
2018-09-28T01:27:15.085Z,76.92
2018-09-28T01:29:43.694Z,77.36
2018-09-28T01:32:12.973Z,76.65
2018-09-28T01:34:42.137Z,78.01
2018-09-28T01:37:10.446Z,77.69
2018-09-28T01:39:39.467Z,77.31
2018-09-28T01:42:08.261Z,77.23
2018-09-28T01:44:36.809Z,77.58
2018-09-28T01:47:05.606Z,77.69
2018-09-28T01:49:34.303Z,77.63
2018-09-28T01:52:02.666Z,77.32
2018-09-28T01:54:31.254Z,77.80
2018-09-28T01:56:59.964Z,77.06
2018-09-28T01:59:28.612Z,78.12
2018-09-28T02:01:57.225Z,77.76
2018-09-28T02:04:25.560Z,77.27
2018-09-28T02:06:54.546Z,78.02
2018-09-28T02:09:23.248Z,77.67
2018-09-28T02:11:51.582Z,78.30
2018-09-28T02:14:19.964Z,77.86
2018-09-28T02:16:48.879Z,78.46
2018-09-28T02:19:17.182Z,78.83
2018-09-28T02:21:45.864Z,78.52
2018-09-28T02:24:14.871Z,78.20
2018-09-28T02:26:43.288Z,78.70
2018-09-28T02:29:11.736Z,78.78
2018-09-28T02:31:40.207Z,79.43
2018-09-28T02:34:09.400Z,79.17
2018-09-28T02:36:38.269Z,79.11
2018-09-28T02:39:07.788Z,79.23
2018-09-28T02:41:35.989Z,79.60
2018-09-28T02:44:04.364Z,79.74
2018-09-28T02:46:32.770Z,79.74
2018-09-28T02:49:01.676Z,79.28
2018-09-28T02:51:29.995Z,79.35
2018-09-28T02:53:58.600Z,79.36
2018-09-28T02:56:27.716Z,79.65
2018-09-28T02:58:56.267Z,80.02
2018-09-28T03:01:24.766Z,79.84
2018-09-28T03:03:53.537Z,79.82
2018-09-28T03:06:21.972Z,79.67
2018-09-28T03:08:50.369Z,79.77
2018-09-28T03:11:18.999Z,80.71
2018-09-28T03:13:47.357Z,81.00
2018-09-28T03:16:16.160Z,80.30
2018-09-28T03:18:45.342Z,80.64
2018-09-28T03:21:14.029Z,80.80
2018-09-28T03:23:42.483Z,79.88
2018-09-28T03:26:10.926Z,80.38
2018-09-28T03:28:39.580Z,80.38
2018-09-28T03:31:08.853Z,80.40
2018-09-28T03:33:37.224Z,80.02
2018-09-28T03:36:05.668Z,80.83
2018-09-28T03:38:34.557Z,80.74
2018-09-28T03:41:03.556Z,79.85
2018-09-28T03:43:31.982Z,79.68
2018-09-28T03:46:00.560Z,80.36
2018-09-28T03:48:28.971Z,80.53
2018-09-28T03:50:57.365Z,80.25
2018-09-28T03:53:26.068Z,80.72
2018-09-28T03:55:54.395Z,80.79
2018-09-28T03:58:23.208Z,80.09
2018-09-28T04:00:51.942Z,80.14
2018-09-28T04:03:20.276Z,80.57
2018-09-28T04:08:27.685Z,81.61
2018-09-28T04:10:56.524Z,81.36
2018-09-28T04:13:25.412Z,81.56
2018-09-28T04:15:53.745Z,81.85
2018-09-28T04:18:22.011Z,82.45
2018-09-28T04:20:50.859Z,81.26
2018-09-28T04:23:19.074Z,81.35
2018-09-28T04:25:48.423Z,81.73
2018-09-28T04:28:16.716Z,81.35
2018-09-28T04:30:45.400Z,80.95
2018-09-28T04:33:14.086Z,81.37
2018-09-28T04:35:42.361Z,81.87
2018-09-28T04:38:11.320Z,81.36
2018-09-28T04:40:39.637Z,81.86
2018-09-28T04:43:10.118Z,82.00
2018-09-28T04:45:39.666Z,82.27
2018-09-28T04:48:08.209Z,82.53
2018-09-28T04:50:36.537Z,82.36
2018-09-28T04:53:05.109Z,82.00
2018-09-28T04:55:34.745Z,82.27
2018-09-28T04:58:03.272Z,82.11
2018-09-28T05:00:31.708Z,82.02
2018-09-28T05:02:59.998Z,81.40
2018-09-28T05:05:28.465Z,81.87
2018-09-28T05:07:56.747Z,82.17
2018-09-28T05:10:25.333Z,81.70
2018-09-28T05:12:53.677Z,82.34
2018-09-28T05:15:22.173Z,82.03
2018-09-28T05:17:53.816Z,82.33
2018-09-28T05:20:22.777Z,82.65
2018-09-28T05:22:52.077Z,81.63
2018-09-28T05:25:20.687Z,81.84
2018-09-28T05:27:49.672Z,81.27
2018-09-28T05:30:18.293Z,82.03
2018-09-28T05:32:46.672Z,81.54
2018-09-28T05:35:15.176Z,81.63
2018-09-28T05:37:43.576Z,81.61
2018-09-28T05:40:11.961Z,82.01
2018-09-28T05:42:40.579Z,81.14
2018-09-28T05:45:09.197Z,81.16
2018-09-28T05:47:38.084Z,81.62
2018-09-28T05:50:06.917Z,80.27
2018-09-28T05:52:35.904Z,78.56
2018-09-28T05:55:04.449Z,78.70
2018-09-28T05:57:32.985Z,78.15
2018-09-28T06:00:06.893Z,78.78
2018-09-28T06:02:40.850Z,78.45
2018-09-28T06:05:15.937Z,78.29
2018-09-28T06:07:45.448Z,78.78
2018-09-28T06:10:15.374Z,78.39
2018-09-28T06:12:44.729Z,78.37
2018-09-28T06:15:13.322Z,78.12
2018-09-28T06:17:42.841Z,78.22
2018-09-28T06:20:11.881Z,77.49
2018-09-28T06:22:41.941Z,78.12
2018-09-28T06:25:10.792Z,77.88
2018-09-28T06:27:39.126Z,76.85
2018-09-28T06:30:10.779Z,76.33
2018-09-28T06:32:39.702Z,76.54
2018-09-28T06:35:08.051Z,76.42
2018-09-28T06:37:37.169Z,75.56
2018-09-28T06:40:05.667Z,75.46
2018-09-28T06:42:35.474Z,74.98
2018-09-28T06:45:04.556Z,74.54
2018-09-28T06:47:33.016Z,73.94
2018-09-28T06:50:02.273Z,73.97
2018-09-28T06:52:31.529Z,73.70
2018-09-28T06:54:59.966Z,72.60
2018-09-28T06:57:29.325Z,72.29
2018-09-28T06:59:58.200Z,71.68
2018-09-28T07:02:26.487Z,70.86
2018-09-28T07:04:55.546Z,70.82
2018-09-28T07:07:23.874Z,70.77
2018-09-28T07:09:53.315Z,70.46
2018-09-28T07:12:21.658Z,69.65
2018-09-28T07:14:50.011Z,69.41
2018-09-28T07:17:18.345Z,68.62
2018-09-28T07:19:47.205Z,67.21
2018-09-28T07:22:16.255Z,67.70
2018-09-28T07:24:45.065Z,67.27
2018-09-28T07:27:13.996Z,66.78
2018-09-28T07:29:42.459Z,65.53
2018-09-28T07:32:11.871Z,65.10
2018-09-28T07:34:40.482Z,66.29
2018-09-28T07:37:08.893Z,66.62
2018-09-28T07:39:37.217Z,66.06
2018-09-28T07:42:05.584Z,66.39
2018-09-28T07:44:33.905Z,65.16
2018-09-28T07:47:02.209Z,65.35
2018-09-28T07:49:30.963Z,64.75
2018-09-28T07:51:59.297Z,64.26
2018-09-28T07:54:27.749Z,64.62
2018-09-28T07:56:56.954Z,64.03
2018-09-28T07:59:25.478Z,64.08
2018-09-28T08:01:54.760Z,63.04
2018-09-28T08:04:25.035Z,62.79
2018-09-28T08:06:53.538Z,63.32
2018-09-28T08:09:22.987Z,62.38
2018-09-28T08:11:51.630Z,62.39
2018-09-28T08:14:20.223Z,62.40
2018-09-28T08:16:48.720Z,61.30
2018-09-28T08:19:17.634Z,60.39
2018-09-28T08:21:46.263Z,60.24
2018-09-28T08:24:15.433Z,59.62
2018-09-28T08:26:44.497Z,59.14
2018-09-28T08:29:13.533Z,59.18
2018-09-28T08:31:42.077Z,59.02
2018-09-28T08:34:10.600Z,58.28
2018-09-28T08:39:17.193Z,58.16
2018-09-28T08:41:45.866Z,58.33
2018-09-28T08:44:14.192Z,57.32
2018-09-28T08:46:42.718Z,57.65
2018-09-28T08:49:11.186Z,57.70
2018-09-28T08:51:39.552Z,57.80
2018-09-28T08:54:08.216Z,57.48
2018-09-28T08:56:38.719Z,56.66
2018-09-28T08:59:07.345Z,56.19
2018-09-28T09:01:38.722Z,56.30
2018-09-28T09:04:07.113Z,55.99
2018-09-28T09:06:35.585Z,55.81
2018-09-28T09:09:07.379Z,55.64
2018-09-28T09:11:36.034Z,56.60
2018-09-28T09:14:04.372Z,57.07
2018-09-28T09:16:34.026Z,56.49
2018-09-28T09:19:02.849Z,55.84
2018-09-28T09:21:31.419Z,56.00
2018-09-28T09:24:00.059Z,55.82
2018-09-28T09:26:28.315Z,54.68
2018-09-28T09:28:57.262Z,53.73
2018-09-28T09:31:26.269Z,53.76
2018-09-28T09:33:54.551Z,53.06
2018-09-28T09:36:23.731Z,53.06
2018-09-28T09:38:52.697Z,54.01
2018-09-28T09:41:21.984Z,53.40
2018-09-28T09:43:51.749Z,52.42
2018-09-28T09:46:20.055Z,53.88
2018-09-28T09:48:48.652Z,53.47
2018-09-28T09:51:18.165Z,52.62
2018-09-28T09:53:46.860Z,52.33
2018-09-28T09:56:15.303Z,51.90
2018-09-28T09:58:43.811Z,51.39
2018-09-28T10:02:19.836Z,50.80
2018-09-28T10:04:49.251Z,50.04
2018-09-28T10:07:18.542Z,50.42
2018-09-28T10:09:47.071Z,49.89
2018-09-28T10:12:15.360Z,49.05
2018-09-28T10:14:43.606Z,48.56
2018-09-28T10:17:12.010Z,48.54
2018-09-28T10:19:40.505Z,48.29
2018-09-28T10:22:08.844Z,46.70
2018-09-28T10:24:37.533Z,46.00
2018-09-28T10:27:06.818Z,45.93
2018-09-28T10:29:35.833Z,46.39
2018-09-28T10:32:04.298Z,44.69
2018-09-28T10:34:32.756Z,45.54
2018-09-28T10:37:01.061Z,44.24
2018-09-28T10:39:29.400Z,43.97
2018-09-28T10:41:57.723Z,42.71
2018-09-28T10:44:26.412Z,43.03
2018-09-28T10:46:55.241Z,41.45
2018-09-28T10:49:24.995Z,43.22
2018-09-28T10:51:53.547Z,43.01
2018-09-28T10:54:21.848Z,43.33
2018-09-28T10:56:51.210Z,42.45
2018-09-28T10:59:19.854Z,42.41
2018-09-28T11:01:49.682Z,42.43
2018-09-28T11:04:18.806Z,41.61
2018-09-28T11:06:48.022Z,40.54
2018-09-28T11:09:17.698Z,41.06
2018-09-28T11:11:46.116Z,40.96
2018-09-28T11:14:15.068Z,40.67
2018-09-28T11:16:43.412Z,40.71
2018-09-28T11:19:12.120Z,40.06
2018-09-28T11:21:42.220Z,39.25
2018-09-28T11:24:10.797Z,40.40
2018-09-28T11:26:39.113Z,39.30
2018-09-28T11:29:07.525Z,38.55
2018-09-28T11:31:35.926Z,36.04
2018-09-28T11:34:04.411Z,36.49
2018-09-28T11:36:34.018Z,36.18
2018-09-28T11:39:02.810Z,36.90
2018-09-28T11:41:32.223Z,36.48
2018-09-28T11:44:01.578Z,36.96
2018-09-28T11:46:29.866Z,37.31
2018-09-28T11:48:59.084Z,36.97
2018-09-28T11:51:27.616Z,37.15
2018-09-28T11:53:55.993Z,36.44
2018-09-28T11:56:24.386Z,36.81
2018-09-28T11:58:53.883Z,36.36
2018-09-28T12:01:22.534Z,34.40
2018-09-28T12:03:50.980Z,34.08
2018-09-28T12:06:19.927Z,33.90
2018-09-28T12:08:48.178Z,33.49
2018-09-28T12:11:16.517Z,31.72
2018-09-28T12:13:45.454Z,31.85
2018-09-28T12:16:13.726Z,34.24
2018-09-28T12:18:42.094Z,34.03
2018-09-28T12:21:10.408Z,34.24
2018-09-28T12:23:38.786Z,34.84
2018-09-28T12:26:08.400Z,34.34
2018-09-28T12:28:36.695Z,34.49
2018-09-28T12:31:05.200Z,34.42
2018-09-28T12:33:33.856Z,33.57
2018-09-28T12:36:02.398Z,33.49
2018-09-28T12:38:32.926Z,32.62
2018-09-28T12:41:01.986Z,31.78
2018-09-28T12:43:35.031Z,31.44
2018-09-28T12:45:59.496Z,30.78
2018-09-28T12:48:27.930Z,30.79
2018-09-28T12:50:56.080Z,32.10
2018-09-28T12:53:25.158Z,31.20
2018-09-28T12:55:53.435Z,30.66
2018-09-28T12:58:23.624Z,30.81
2018-09-28T13:00:52.257Z,31.66
2018-09-28T13:03:22.937Z,32.28
2018-09-28T13:05:51.419Z,32.25
2018-09-28T13:08:19.756Z,31.31
2018-09-28T13:10:48.237Z,29.72
2018-09-28T13:13:17.405Z,28.30
2018-09-28T13:15:46.527Z,26.68
2018-09-28T13:18:15.286Z,25.94
2018-09-28T13:20:44.305Z,26.93
2018-09-28T13:23:13.183Z,26.73
2018-09-28T13:25:42.023Z,25.78
2018-09-28T13:28:10.444Z,24.43
2018-09-28T13:30:40.761Z,24.10
2018-09-28T13:33:10.285Z,23.50
2018-09-28T13:35:40.465Z,21.52
2018-09-28T13:38:09.426Z,20.85
2018-09-28T13:40:42.554Z,21.85
2018-09-28T13:43:14.086Z,21.20
2018-09-28T13:45:44.817Z,20.86
2018-09-28T13:48:13.535Z,20.39
2018-09-28T13:50:42.154Z,19.68
2018-09-28T13:53:10.806Z,20.77
2018-09-28T13:55:39.975Z,20.83
2018-09-28T13:58:09.884Z,21.11
2018-09-28T14:00:40.001Z,19.97
2018-09-28T14:03:10.315Z,20.36
2018-09-28T14:05:40.896Z,20.57
2018-09-28T14:08:11.072Z,20.12
2018-09-28T14:10:41.591Z,19.09
2018-09-28T14:13:11.745Z,20.53
2018-09-28T14:15:41.248Z,22.02
2018-09-28T14:18:09.959Z,23.06
2018-09-28T14:20:38.568Z,23.43
2018-09-28T14:23:07.722Z,22.98
2018-09-28T14:25:36.874Z,23.64
2018-09-28T14:28:05.613Z,22.88
2018-09-28T14:30:34.045Z,21.45
2018-09-28T14:33:03.472Z,20.52
2018-09-28T14:35:32.968Z,20.16
2018-09-28T14:38:02.161Z,20.05
2018-09-28T14:40:31.068Z,20.48
2018-09-28T14:43:02.502Z,21.91
2018-09-28T14:45:31.279Z,20.80
2018-09-28T14:48:01.371Z,20.80
2018-09-28T14:50:30.678Z,21.41
2018-09-28T14:52:59.560Z,19.70
2018-09-28T14:55:29.058Z,20.87
2018-09-28T14:57:57.426Z,19.65
2018-09-28T15:00:26.758Z,19.05
2018-09-28T15:02:55.771Z,19.44
2018-09-28T15:05:25.743Z,19.00
2018-09-28T15:07:55.111Z,19.05
2018-09-28T15:10:24.548Z,19.66
2018-09-28T15:12:52.860Z,20.26
2018-09-28T15:15:24.224Z,21.00
2018-09-28T15:17:53.901Z,23.28
2018-09-28T15:20:22.581Z,22.73
2018-09-28T15:22:51.568Z,22.26
2018-09-28T15:25:20.323Z,22.54
2018-09-28T15:27:48.891Z,23.11
2018-09-28T15:30:18.441Z,25.21
2018-09-28T15:32:48.465Z,26.32
2018-09-28T15:35:16.940Z,26.02
2018-09-28T15:37:45.544Z,26.15
2018-09-28T15:40:14.321Z,26.61
2018-09-28T15:42:44.522Z,25.47
2018-09-28T15:45:15.350Z,26.87
2018-09-28T15:47:45.236Z,25.31
2018-09-28T15:50:13.752Z,24.34
2018-09-28T15:52:42.464Z,25.96
2018-09-28T15:55:11.195Z,27.88
2018-09-28T15:57:41.573Z,28.56
2018-09-28T16:00:11.243Z,29.32
2018-09-28T16:02:41.854Z,29.68
2018-09-28T16:05:12.557Z,32.45
2018-09-28T16:07:42.298Z,33.35
2018-09-28T16:10:14.055Z,34.69
2018-09-28T16:12:42.474Z,36.31
2018-09-28T16:15:11.166Z,37.31
2018-09-28T16:17:42.044Z,38.02
2018-09-28T16:20:11.937Z,38.34
2018-09-28T16:22:41.896Z,39.26
2018-09-28T16:25:13.101Z,40.64
2018-09-28T16:27:42.327Z,41.57
2018-09-28T16:30:10.959Z,42.68
2018-09-28T16:32:39.599Z,43.60
2018-09-28T16:35:08.808Z,43.77
2018-09-28T16:37:38.827Z,44.03
2018-09-28T16:40:08.230Z,44.91
2018-09-28T16:42:38.728Z,45.36
2018-09-28T16:45:09.115Z,45.53
2018-09-28T16:47:40.077Z,46.09
2018-09-28T16:50:14.281Z,45.78
2018-09-28T16:52:43.517Z,46.65
2018-09-28T16:55:11.892Z,46.91
2018-09-28T16:57:40.993Z,46.50
2018-09-28T17:00:09.601Z,46.95
2018-09-28T17:02:38.979Z,47.04
2018-09-28T17:05:09.125Z,46.69
2018-09-28T17:07:38.665Z,46.69
2018-09-28T17:10:07.466Z,46.22
2018-09-28T17:12:37.267Z,46.69
2018-09-28T17:15:07.747Z,46.00
2018-09-28T17:17:36.737Z,46.25
2018-09-28T17:20:05.797Z,46.08
2018-09-28T17:22:36.452Z,46.07
2018-09-28T17:25:06.189Z,46.03
2018-09-28T17:27:35.133Z,45.33
2018-09-28T17:30:04.168Z,44.82
2018-09-28T17:32:33.525Z,45.21
2018-09-28T17:35:04.606Z,45.31
2018-09-28T17:37:33.529Z,45.45
2018-09-28T17:40:01.717Z,45.71
2018-09-28T17:42:33.025Z,46.07
2018-09-28T17:45:03.060Z,46.13
2018-09-28T17:47:33.305Z,48.05
2018-09-28T17:50:03.933Z,48.08
2018-09-28T17:52:34.869Z,48.99
2018-09-28T17:55:06.249Z,49.36
2018-09-28T17:57:35.081Z,50.06
2018-09-28T18:00:03.582Z,50.27
2018-09-28T18:02:35.179Z,50.80
2018-09-28T18:05:03.926Z,51.10
2018-09-28T18:07:35.698Z,51.74
2018-09-28T18:10:04.068Z,52.71
2018-09-28T18:12:35.375Z,53.28
2018-09-28T18:15:04.012Z,53.80
2018-09-28T18:17:34.192Z,54.79
2018-09-28T18:20:07.373Z,54.98
2018-09-28T18:22:35.782Z,55.76
2018-09-28T18:25:06.823Z,56.60
2018-09-28T18:27:39.441Z,56.77
2018-09-28T18:30:12.813Z,57.75
2018-09-28T18:32:44.501Z,58.18
2018-09-28T18:35:13.635Z,59.29
2018-09-28T18:37:44.573Z,59.48
2018-09-28T18:40:14.180Z,60.31
2018-09-28T18:42:43.754Z,60.56
2018-09-28T18:45:14.363Z,61.59
2018-09-28T18:47:43.302Z,62.20
2018-09-28T18:50:12.853Z,62.59
2018-09-28T18:52:41.913Z,63.52
2018-09-28T18:55:10.467Z,64.02
2018-09-28T18:57:40.353Z,64.93
2018-09-28T19:00:10.055Z,65.61
2018-09-28T19:02:39.969Z,65.61
2018-09-28T19:05:09.923Z,65.69
2018-09-28T19:07:38.306Z,66.57
2018-09-28T19:10:09.341Z,66.88
2018-09-28T19:12:38.367Z,67.20
2018-09-28T19:15:08.286Z,67.55
2018-09-28T19:17:38.281Z,67.56
2018-09-28T19:20:06.810Z,68.02
2018-09-28T19:22:36.858Z,67.96
2018-09-28T19:25:07.064Z,68.04
2018-09-28T19:27:37.741Z,68.46
2018-09-28T19:30:06.729Z,68.51
2018-09-28T19:32:35.450Z,68.35
2018-09-28T19:35:05.335Z,69.36
2018-09-28T19:37:36.689Z,69.60
2018-09-28T19:40:05.669Z,70.18
2018-09-28T19:42:37.074Z,70.36
2018-09-28T19:45:07.092Z,71.12
2018-09-28T19:47:37.802Z,69.80
2018-09-28T19:50:14.370Z,67.63
2018-09-28T19:52:46.651Z,67.23
2018-09-28T19:55:15.911Z,66.18
2018-09-28T19:57:45.544Z,69.29
2018-09-28T20:00:18.570Z,71.23
2018-09-28T20:02:46.837Z,71.24
2018-09-28T20:05:16.692Z,71.01
2018-09-28T20:07:46.599Z,70.46
2018-09-28T20:10:16.120Z,70.40
2018-09-28T20:12:47.160Z,70.28
2018-09-28T20:15:18.400Z,69.70
2018-09-28T20:17:49.600Z,69.78
2018-09-28T20:20:18.364Z,70.05
2018-09-28T20:22:46.919Z,69.73
2018-09-28T20:25:16.551Z,69.82
2018-09-28T20:27:47.268Z,70.84
2018-09-28T20:30:16.646Z,70.69
2018-09-28T20:32:46.408Z,71.55
2018-09-28T20:35:14.785Z,73.11
2018-09-28T20:37:44.396Z,73.56
2018-09-28T20:40:13.470Z,74.25
2018-09-28T20:42:42.666Z,75.64
2018-09-28T20:45:11.788Z,75.77
2018-09-28T20:47:40.414Z,76.45
2018-09-28T20:50:08.702Z,76.96
2018-09-28T20:52:37.025Z,77.04
2018-09-28T20:55:05.768Z,78.02
2018-09-28T20:57:34.134Z,77.05
2018-09-28T21:00:02.607Z,77.27
2018-09-28T21:02:31.299Z,77.54
2018-09-28T21:04:59.629Z,78.25
2018-09-28T21:07:27.941Z,77.79
2018-09-28T21:09:56.338Z,78.14
2018-09-28T21:12:24.940Z,80.89
2018-09-28T21:14:53.547Z,79.56
2018-09-28T21:17:22.248Z,80.03
2018-09-28T21:19:50.653Z,78.84
2018-09-28T21:22:19.030Z,81.90
2018-09-28T21:24:47.803Z,78.69
2018-09-28T21:27:16.039Z,78.68
2018-09-28T21:29:44.475Z,79.51
2018-09-28T21:32:12.798Z,79.48
2018-09-28T21:34:41.356Z,79.98
2018-09-28T21:37:09.671Z,79.02
2018-09-28T21:39:38.281Z,81.13
2018-09-28T21:42:06.660Z,79.46
2018-09-28T21:44:35.075Z,77.40
2018-09-28T21:47:03.350Z,78.51
2018-09-28T21:49:32.655Z,75.86
2018-09-28T21:52:00.920Z,75.65
2018-09-28T21:54:29.408Z,75.84
2018-09-28T21:56:58.341Z,75.58
2018-09-28T21:59:26.593Z,75.23
2018-09-28T22:01:54.957Z,75.94
2018-09-28T22:04:23.556Z,74.55
2018-09-28T22:06:51.799Z,73.75
2018-09-28T22:09:20.492Z,74.50
2018-09-28T22:11:48.783Z,73.82
2018-09-28T22:14:17.197Z,73.45
2018-09-28T22:16:45.601Z,74.52
2018-09-28T22:19:14.018Z,73.53
2018-09-28T22:21:42.308Z,72.45
2018-09-28T22:24:10.610Z,72.70
2018-09-28T22:26:38.971Z,70.39
2018-09-28T22:29:07.652Z,71.46
2018-09-28T22:31:35.983Z,70.60
2018-09-28T22:34:04.277Z,70.17
2018-09-28T22:36:32.608Z,70.31
2018-09-28T22:39:00.851Z,69.69
2018-09-28T22:41:29.173Z,69.11
2018-09-28T22:43:57.448Z,69.08
2018-09-28T22:46:25.993Z,68.49
2018-09-28T22:48:54.291Z,68.91
2018-09-28T22:51:22.671Z,67.57
2018-09-28T22:53:51.404Z,67.37
2018-09-28T22:56:19.986Z,67.26
2018-09-28T22:58:49.050Z,66.64
2018-09-28T23:01:17.360Z,67.07
2018-09-28T23:03:46.137Z,66.06
2018-09-28T23:06:14.717Z,65.79
2018-09-28T23:08:43.844Z,65.71
2018-09-28T23:11:12.652Z,64.63
2018-09-28T23:13:41.504Z,63.27
2018-09-28T23:16:10.463Z,64.62
2018-09-28T23:18:38.840Z,65.61
2018-09-28T23:21:07.116Z,64.33
2018-09-28T23:23:35.328Z,64.94
2018-09-28T23:26:03.674Z,63.41
2018-09-28T23:28:32.050Z,63.19
2018-09-28T23:31:00.607Z,63.07
2018-09-28T23:33:28.924Z,62.64
2018-09-28T23:35:57.609Z,62.75
2018-09-28T23:38:26.201Z,63.50
2018-09-28T23:40:54.573Z,62.00
2018-09-28T23:43:22.952Z,61.02
2018-09-28T23:45:51.867Z,60.67
2018-09-28T23:48:20.218Z,59.74
2018-09-28T23:50:48.608Z,60.41
2018-09-28T23:53:16.962Z,60.69
2018-09-28T23:55:45.352Z,59.73
2018-09-28T23:58:13.755Z,60.38
